sensor_id;sensor_type;location;lat;lon;timestamp;pressure;altitude;pressure_sealevel;temperature;humidity
22651;BME280;11492;42.646;23.400;2022-10-31T00:01:50;95491.34;;;15.49;49.57
22651;BME280;11492;42.646;23.400;2022-10-31T00:04:16;95487.94;;;15.43;50.04
22651;BME280;11492;42.646;23.400;2022-10-31T00:06:41;95486.13;;;15.43;49.54
22651;BME280;11492;42.646;23.400;2022-10-31T00:09:06;95486.31;;;15.42;50.37
22651;BME280;11492;42.646;23.400;2022-10-31T00:11:32;95492.72;;;15.33;50.40
22651;BME280;11492;42.646;23.400;2022-10-31T00:13:58;95502.50;;;15.31;50.72
22651;BME280;11492;42.646;23.400;2022-10-31T00:16:24;95500.09;;;15.29;50.37
22651;BME280;11492;42.646;23.400;2022-10-31T00:18:52;95503.47;;;15.17;51.17
22651;BME280;11492;42.646;23.400;2022-10-31T00:21:17;95498.56;;;15.01;51.33
22651;BME280;11492;42.646;23.400;2022-10-31T00:23:44;95500.50;;;14.93;51.20
22651;BME280;11492;42.646;23.400;2022-10-31T00:26:10;95505.66;;;14.80;52.03
22651;BME280;11492;42.646;23.400;2022-10-31T00:28:35;95501.56;;;14.65;52.42
22651;BME280;11492;42.646;23.400;2022-10-31T00:31:07;95505.06;;;14.51;52.54
22651;BME280;11492;42.646;23.400;2022-10-31T00:33:34;95506.19;;;14.43;53.12
22651;BME280;11492;42.646;23.400;2022-10-31T00:36:00;95509.31;;;14.32;52.87
22651;BME280;11492;42.646;23.400;2022-10-31T00:38:26;95496.78;;;14.15;53.84
22651;BME280;11492;42.646;23.400;2022-10-31T00:40:51;95500.31;;;14.07;54.07
22651;BME280;11492;42.646;23.400;2022-10-31T00:43:17;95505.78;;;13.92;53.90
22651;BME280;11492;42.646;23.400;2022-10-31T00:45:43;95509.97;;;13.72;55.17
22651;BME280;11492;42.646;23.400;2022-10-31T00:48:09;95508.22;;;13.58;55.09
22651;BME280;11492;42.646;23.400;2022-10-31T00:50:34;95511.88;;;13.64;55.44
22651;BME280;11492;42.646;23.400;2022-10-31T00:53:00;95512.91;;;13.69;55.05
22651;BME280;11492;42.646;23.400;2022-10-31T00:55:25;95502.34;;;13.70;55.35
22651;BME280;11492;42.646;23.400;2022-10-31T00:57:50;95504.13;;;13.70;55.88
22651;BME280;11492;42.646;23.400;2022-10-31T01:00:16;95505.75;;;13.71;55.37
22651;BME280;11492;42.646;23.400;2022-10-31T01:02:41;95511.94;;;13.70;54.95
22651;BME280;11492;42.646;23.400;2022-10-31T01:05:07;95508.47;;;13.63;55.45
22651;BME280;11492;42.646;23.400;2022-10-31T01:07:37;95506.63;;;13.57;55.57
22651;BME280;11492;42.646;23.400;2022-10-31T01:10:03;95513.97;;;13.54;55.32
22651;BME280;11492;42.646;23.400;2022-10-31T01:12:29;95521.28;;;13.50;55.37
22651;BME280;11492;42.646;23.400;2022-10-31T01:14:54;95511.03;;;13.43;55.51
22651;BME280;11492;42.646;23.400;2022-10-31T01:17:20;95515.97;;;13.38;55.68
22651;BME280;11492;42.646;23.400;2022-10-31T01:19:45;95523.06;;;13.29;56.61
22651;BME280;11492;42.646;23.400;2022-10-31T01:22:11;95521.63;;;13.27;56.76
22651;BME280;11492;42.646;23.400;2022-10-31T01:24:36;95527.75;;;13.20;56.67
22651;BME280;11492;42.646;23.400;2022-10-31T01:27:02;95524.22;;;13.27;55.71
22651;BME280;11492;42.646;23.400;2022-10-31T01:29:27;95519.41;;;13.24;56.73
22651;BME280;11492;42.646;23.400;2022-10-31T01:31:53;95531.75;;;13.22;56.06
22651;BME280;11492;42.646;23.400;2022-10-31T01:34:18;95537.38;;;13.25;56.91
22651;BME280;11492;42.646;23.400;2022-10-31T01:36:44;95529.03;;;13.30;57.16
22651;BME280;11492;42.646;23.400;2022-10-31T01:39:13;95515.13;;;13.31;56.37
22651;BME280;11492;42.646;23.400;2022-10-31T01:41:42;95526.09;;;13.33;56.62
22651;BME280;11492;42.646;23.400;2022-10-31T01:47:00;95531.53;;;13.38;57.19
22651;BME280;11492;42.646;23.400;2022-10-31T01:49:48;95537.19;;;13.41;56.79
22651;BME280;11492;42.646;23.400;2022-10-31T01:52:36;95530.53;;;13.39;57.25
22651;BME280;11492;42.646;23.400;2022-10-31T01:55:21;95529.94;;;13.37;56.96
22651;BME280;11492;42.646;23.400;2022-10-31T01:57:52;95527.44;;;13.29;56.43
22651;BME280;11492;42.646;23.400;2022-10-31T02:00:20;95528.06;;;13.31;57.09
22651;BME280;11492;42.646;23.400;2022-10-31T02:02:46;95525.56;;;13.37;57.01
22651;BME280;11492;42.646;23.400;2022-10-31T02:05:16;95532.53;;;13.37;56.71
22651;BME280;11492;42.646;23.400;2022-10-31T02:07:48;95527.94;;;13.39;57.92
22651;BME280;11492;42.646;23.400;2022-10-31T02:10:18;95521.78;;;13.40;56.76
22651;BME280;11492;42.646;23.400;2022-10-31T02:12:44;95517.56;;;13.39;57.54
22651;BME280;11492;42.646;23.400;2022-10-31T02:15:10;95526.00;;;13.41;57.36
22651;BME280;11492;42.646;23.400;2022-10-31T02:17:36;95531.78;;;13.43;57.36
22651;BME280;11492;42.646;23.400;2022-10-31T02:20:16;95517.16;;;13.35;58.14
22651;BME280;11492;42.646;23.400;2022-10-31T02:23:33;95521.72;;;13.33;57.40
22651;BME280;11492;42.646;23.400;2022-10-31T02:29:05;95545.84;;;13.34;57.09
22651;BME280;11492;42.646;23.400;2022-10-31T02:31:41;95539.31;;;13.38;57.47
22651;BME280;11492;42.646;23.400;2022-10-31T02:34:21;95542.09;;;13.36;57.39
22651;BME280;11492;42.646;23.400;2022-10-31T02:39:44;95549.88;;;13.36;57.42
22651;BME280;11492;42.646;23.400;2022-10-31T02:45:14;95545.50;;;13.37;57.89
22651;BME280;11492;42.646;23.400;2022-10-31T02:47:45;95541.91;;;13.38;57.63
22651;BME280;11492;42.646;23.400;2022-10-31T02:50:27;95552.75;;;13.41;58.55
22651;BME280;11492;42.646;23.400;2022-10-31T02:52:54;95553.91;;;13.39;56.99
22651;BME280;11492;42.646;23.400;2022-10-31T02:57:54;95547.72;;;13.40;57.80
22651;BME280;11492;42.646;23.400;2022-10-31T03:00:22;95554.34;;;13.42;57.75
22651;BME280;11492;42.646;23.400;2022-10-31T03:07:57;95555.41;;;13.47;57.53
22651;BME280;11492;42.646;23.400;2022-10-31T03:10:34;95556.22;;;13.48;57.81
22651;BME280;11492;42.646;23.400;2022-10-31T03:15:32;95549.03;;;13.15;58.64
22651;BME280;11492;42.646;23.400;2022-10-31T03:18:08;95544.00;;;13.28;58.57
22651;BME280;11492;42.646;23.400;2022-10-31T03:21:10;95552.63;;;13.35;58.36
22651;BME280;11492;42.646;23.400;2022-10-31T03:23:37;95552.28;;;13.38;58.00
22651;BME280;11492;42.646;23.400;2022-10-31T03:26:06;95569.66;;;13.37;58.07
22651;BME280;11492;42.646;23.400;2022-10-31T03:28:46;95559.00;;;13.32;58.54
22651;BME280;11492;42.646;23.400;2022-10-31T03:31:17;95559.81;;;13.33;58.80
22651;BME280;11492;42.646;23.400;2022-10-31T03:33:45;95558.28;;;13.38;58.07
22651;BME280;11492;42.646;23.400;2022-10-31T03:36:14;95556.22;;;13.34;58.16
22651;BME280;11492;42.646;23.400;2022-10-31T03:38:42;95569.38;;;13.46;57.19
22651;BME280;11492;42.646;23.400;2022-10-31T03:41:13;95561.19;;;13.49;58.50
22651;BME280;11492;42.646;23.400;2022-10-31T03:43:46;95572.38;;;13.50;59.09
22651;BME280;11492;42.646;23.400;2022-10-31T03:46:13;95561.84;;;13.51;58.20
22651;BME280;11492;42.646;23.400;2022-10-31T03:48:39;95575.91;;;13.43;57.71
22651;BME280;11492;42.646;23.400;2022-10-31T03:51:15;95571.72;;;13.27;58.89
22651;BME280;11492;42.646;23.400;2022-10-31T03:53:50;95569.38;;;13.32;59.17
22651;BME280;11492;42.646;23.400;2022-10-31T03:56:35;95580.75;;;13.46;59.35
22651;BME280;11492;42.646;23.400;2022-10-31T03:59:13;95585.19;;;13.51;59.15
22651;BME280;11492;42.646;23.400;2022-10-31T04:01:46;95578.28;;;13.58;58.04
22651;BME280;11492;42.646;23.400;2022-10-31T04:04:12;95583.38;;;13.66;58.76
22651;BME280;11492;42.646;23.400;2022-10-31T04:06:40;95590.06;;;13.61;58.71
22651;BME280;11492;42.646;23.400;2022-10-31T04:09:08;95586.41;;;13.55;58.21
22651;BME280;11492;42.646;23.400;2022-10-31T04:11:39;95591.47;;;13.28;59.15
22651;BME280;11492;42.646;23.400;2022-10-31T04:14:08;95588.25;;;13.41;59.59
22651;BME280;11492;42.646;23.400;2022-10-31T04:16:35;95594.94;;;13.49;59.29
22651;BME280;11492;42.646;23.400;2022-10-31T04:19:00;95599.84;;;13.45;59.43
22651;BME280;11492;42.646;23.400;2022-10-31T04:21:30;95595.22;;;13.40;59.15
22651;BME280;11492;42.646;23.400;2022-10-31T04:23:56;95594.06;;;13.43;58.86
22651;BME280;11492;42.646;23.400;2022-10-31T04:26:22;95595.13;;;13.48;59.35
22651;BME280;11492;42.646;23.400;2022-10-31T04:28:47;95595.66;;;13.44;59.15
22651;BME280;11492;42.646;23.400;2022-10-31T04:31:13;95594.31;;;13.47;58.84
22651;BME280;11492;42.646;23.400;2022-10-31T04:33:39;95592.00;;;13.52;59.10
22651;BME280;11492;42.646;23.400;2022-10-31T04:36:04;95601.72;;;13.50;59.91
22651;BME280;11492;42.646;23.400;2022-10-31T04:38:30;95598.59;;;13.55;58.73
22651;BME280;11492;42.646;23.400;2022-10-31T04:40:55;95602.09;;;13.47;59.33
22651;BME280;11492;42.646;23.400;2022-10-31T04:43:21;95607.94;;;13.35;58.94
22651;BME280;11492;42.646;23.400;2022-10-31T04:45:46;95607.38;;;13.40;59.39
22651;BME280;11492;42.646;23.400;2022-10-31T04:48:12;95611.94;;;13.38;59.85
22651;BME280;11492;42.646;23.400;2022-10-31T04:50:37;95609.88;;;13.47;59.67
22651;BME280;11492;42.646;23.400;2022-10-31T04:53:03;95606.09;;;13.50;59.45
22651;BME280;11492;42.646;23.400;2022-10-31T04:55:28;95621.25;;;13.46;59.56
22651;BME280;11492;42.646;23.400;2022-10-31T04:57:53;95613.34;;;13.54;59.75
22651;BME280;11492;42.646;23.400;2022-10-31T05:00:20;95609.59;;;13.57;59.78
22651;BME280;11492;42.646;23.400;2022-10-31T05:02:51;95609.75;;;13.55;59.53
22651;BME280;11492;42.646;23.400;2022-10-31T05:05:19;95607.03;;;13.43;59.72
22651;BME280;11492;42.646;23.400;2022-10-31T05:07:46;95611.28;;;13.64;59.69
22651;BME280;11492;42.646;23.400;2022-10-31T05:10:13;95615.75;;;13.70;58.84
22651;BME280;11492;42.646;23.400;2022-10-31T05:12:47;95618.34;;;13.70;58.61
22651;BME280;11492;42.646;23.400;2022-10-31T05:15:13;95611.53;;;13.69;59.08
22651;BME280;11492;42.646;23.400;2022-10-31T05:17:38;95631.06;;;13.65;58.63
22651;BME280;11492;42.646;23.400;2022-10-31T05:20:04;95631.38;;;13.76;59.62
22651;BME280;11492;42.646;23.400;2022-10-31T05:22:30;95635.69;;;13.84;58.60
22651;BME280;11492;42.646;23.400;2022-10-31T05:24:56;95632.03;;;13.93;59.02
22651;BME280;11492;42.646;23.400;2022-10-31T05:27:21;95641.72;;;13.91;58.66
22651;BME280;11492;42.646;23.400;2022-10-31T05:29:47;95623.25;;;13.79;58.81
22651;BME280;11492;42.646;23.400;2022-10-31T05:32:12;95637.81;;;13.80;58.45
22651;BME280;11492;42.646;23.400;2022-10-31T05:34:37;95644.63;;;13.81;58.81
22651;BME280;11492;42.646;23.400;2022-10-31T05:37:03;95645.44;;;13.82;59.01
22651;BME280;11492;42.646;23.400;2022-10-31T05:39:28;95644.56;;;13.61;59.11
22651;BME280;11492;42.646;23.400;2022-10-31T05:41:54;95651.53;;;13.60;58.72
22651;BME280;11492;42.646;23.400;2022-10-31T05:44:19;95638.84;;;13.65;59.83
22651;BME280;11492;42.646;23.400;2022-10-31T05:46:46;95649.59;;;13.62;59.53
22651;BME280;11492;42.646;23.400;2022-10-31T05:49:11;95651.13;;;13.57;59.67
22651;BME280;11492;42.646;23.400;2022-10-31T05:51:37;95654.34;;;13.59;59.78
22651;BME280;11492;42.646;23.400;2022-10-31T05:54:02;95657.72;;;13.59;59.84
22651;BME280;11492;42.646;23.400;2022-10-31T05:56:28;95657.13;;;13.57;60.46
22651;BME280;11492;42.646;23.400;2022-10-31T05:58:53;95651.13;;;13.57;59.51
22651;BME280;11492;42.646;23.400;2022-10-31T06:01:19;95651.75;;;13.59;59.63
22651;BME280;11492;42.646;23.400;2022-10-31T06:03:44;95652.53;;;13.59;59.79
22651;BME280;11492;42.646;23.400;2022-10-31T06:06:09;95668.84;;;13.53;60.34
22651;BME280;11492;42.646;23.400;2022-10-31T06:08:35;95665.53;;;13.31;60.57
22651;BME280;11492;42.646;23.400;2022-10-31T06:11:01;95675.75;;;13.46;60.14
22651;BME280;11492;42.646;23.400;2022-10-31T06:13:26;95679.31;;;13.46;60.24
22651;BME280;11492;42.646;23.400;2022-10-31T06:15:51;95676.88;;;13.44;60.14
22651;BME280;11492;42.646;23.400;2022-10-31T06:18:17;95684.59;;;13.38;60.82
22651;BME280;11492;42.646;23.400;2022-10-31T06:20:42;95684.84;;;13.43;60.44
22651;BME280;11492;42.646;23.400;2022-10-31T06:23:08;95691.91;;;13.48;59.75
22651;BME280;11492;42.646;23.400;2022-10-31T06:25:33;95696.56;;;13.53;60.96
22651;BME280;11492;42.646;23.400;2022-10-31T06:27:59;95693.78;;;13.54;59.95
22651;BME280;11492;42.646;23.400;2022-10-31T06:30:25;95696.13;;;13.49;60.53
22651;BME280;11492;42.646;23.400;2022-10-31T06:32:50;95700.78;;;13.54;60.64
22651;BME280;11492;42.646;23.400;2022-10-31T06:35:16;95706.31;;;13.65;60.54
22651;BME280;11492;42.646;23.400;2022-10-31T06:37:42;95702.75;;;13.66;61.08
22651;BME280;11492;42.646;23.400;2022-10-31T06:40:08;95700.75;;;13.82;60.19
22651;BME280;11492;42.646;23.400;2022-10-31T06:42:33;95703.09;;;13.92;60.17
22651;BME280;11492;42.646;23.400;2022-10-31T06:44:59;95701.00;;;14.01;60.38
22651;BME280;11492;42.646;23.400;2022-10-31T06:47:24;95702.88;;;14.07;60.09
22651;BME280;11492;42.646;23.400;2022-10-31T06:49:49;95696.59;;;14.16;60.11
22651;BME280;11492;42.646;23.400;2022-10-31T06:52:15;95707.50;;;14.26;59.54
22651;BME280;11492;42.646;23.400;2022-10-31T06:54:40;95708.38;;;14.33;59.98
22651;BME280;11492;42.646;23.400;2022-10-31T06:57:06;95703.31;;;14.46;59.16
22651;BME280;11492;42.646;23.400;2022-10-31T06:59:31;95701.38;;;14.54;59.34
22651;BME280;11492;42.646;23.400;2022-10-31T07:01:58;95702.06;;;14.62;58.81
22651;BME280;11492;42.646;23.400;2022-10-31T07:04:24;95695.53;;;14.66;58.21
22651;BME280;11492;42.646;23.400;2022-10-31T07:06:53;95695.03;;;14.77;57.82
22651;BME280;11492;42.646;23.400;2022-10-31T07:09:19;95699.34;;;14.91;57.70
22651;BME280;11492;42.646;23.400;2022-10-31T07:11:44;95704.41;;;14.98;57.97
22651;BME280;11492;42.646;23.400;2022-10-31T07:14:10;95689.41;;;15.00;57.84
22651;BME280;11492;42.646;23.400;2022-10-31T07:16:35;95688.94;;;15.11;57.71
22651;BME280;11492;42.646;23.400;2022-10-31T07:19:01;95684.56;;;15.18;57.16
22651;BME280;11492;42.646;23.400;2022-10-31T07:21:26;95687.09;;;15.32;57.01
22651;BME280;11492;42.646;23.400;2022-10-31T07:23:51;95691.94;;;15.42;56.75
22651;BME280;11492;42.646;23.400;2022-10-31T07:26:17;95686.94;;;15.46;56.85
22651;BME280;11492;42.646;23.400;2022-10-31T07:28:42;95668.72;;;15.46;56.89
22651;BME280;11492;42.646;23.400;2022-10-31T07:31:08;95679.00;;;15.54;56.32
22651;BME280;11492;42.646;23.400;2022-10-31T07:33:33;95666.03;;;15.61;56.11
22651;BME280;11492;42.646;23.400;2022-10-31T07:35:59;95672.28;;;15.72;55.68
22651;BME280;11492;42.646;23.400;2022-10-31T07:38:25;95672.72;;;15.82;55.99
22651;BME280;11492;42.646;23.400;2022-10-31T07:40:51;95675.41;;;15.95;55.90
22651;BME280;11492;42.646;23.400;2022-10-31T07:43:18;95674.66;;;16.07;55.53
22651;BME280;11492;42.646;23.400;2022-10-31T07:45:43;95678.72;;;16.16;55.42
22651;BME280;11492;42.646;23.400;2022-10-31T07:48:09;95677.34;;;16.20;55.49
22651;BME280;11492;42.646;23.400;2022-10-31T07:50:34;95680.97;;;16.32;55.26
22651;BME280;11492;42.646;23.400;2022-10-31T07:53:07;95681.78;;;16.45;55.14
22651;BME280;11492;42.646;23.400;2022-10-31T07:55:34;95681.41;;;16.54;54.81
22651;BME280;11492;42.646;23.400;2022-10-31T07:58:04;95691.25;;;16.65;54.37
22651;BME280;11492;42.646;23.400;2022-10-31T08:00:31;95681.06;;;16.83;53.57
22651;BME280;11492;42.646;23.400;2022-10-31T08:03:08;95679.69;;;18.80;49.96
22651;BME280;11492;42.646;23.400;2022-10-31T08:05:35;95668.59;;;21.25;44.11
22651;BME280;11492;42.646;23.400;2022-10-31T08:08:01;95662.69;;;23.51;39.61
22651;BME280;11492;42.646;23.400;2022-10-31T08:10:27;95664.84;;;25.22;36.46
22651;BME280;11492;42.646;23.400;2022-10-31T08:12:57;95656.25;;;26.68;33.43
22651;BME280;11492;42.646;23.400;2022-10-31T08:15:23;95656.88;;;27.98;31.63
22651;BME280;11492;42.646;23.400;2022-10-31T08:17:48;95650.28;;;28.72;29.64
22651;BME280;11492;42.646;23.400;2022-10-31T08:20:14;95665.75;;;29.56;28.65
22651;BME280;11492;42.646;23.400;2022-10-31T08:22:39;95660.06;;;30.23;27.98
22651;BME280;11492;42.646;23.400;2022-10-31T08:25:05;95671.38;;;30.56;27.58
22651;BME280;11492;42.646;23.400;2022-10-31T08:27:30;95670.22;;;30.67;26.99
22651;BME280;11492;42.646;23.400;2022-10-31T08:29:56;95669.84;;;30.73;26.74
22651;BME280;11492;42.646;23.400;2022-10-31T08:32:21;95667.78;;;30.70;26.64
22651;BME280;11492;42.646;23.400;2022-10-31T08:34:47;95670.81;;;30.13;27.42
22651;BME280;11492;42.646;23.400;2022-10-31T08:37:12;95669.28;;;29.41;28.23
22651;BME280;11492;42.646;23.400;2022-10-31T08:39:37;95669.56;;;30.52;26.76
22651;BME280;11492;42.646;23.400;2022-10-31T08:42:03;95650.44;;;31.27;26.01
22651;BME280;11492;42.646;23.400;2022-10-31T08:44:28;95655.34;;;30.79;26.78
22651;BME280;11492;42.646;23.400;2022-10-31T08:46:54;95660.16;;;30.36;27.19
22651;BME280;11492;42.646;23.400;2022-10-31T08:49:19;95657.41;;;30.87;26.73
22651;BME280;11492;42.646;23.400;2022-10-31T08:51:47;95661.47;;;31.39;26.31
22651;BME280;11492;42.646;23.400;2022-10-31T08:54:13;95662.03;;;32.04;25.15
22651;BME280;11492;42.646;23.400;2022-10-31T08:56:38;95658.09;;;32.28;24.91
22651;BME280;11492;42.646;23.400;2022-10-31T08:59:04;95660.16;;;32.17;25.25
22651;BME280;11492;42.646;23.400;2022-10-31T09:01:29;95657.72;;;32.03;24.98
22651;BME280;11492;42.646;23.400;2022-10-31T09:03:55;95660.59;;;32.37;25.29
22651;BME280;11492;42.646;23.400;2022-10-31T09:06:20;95643.31;;;32.96;24.13
22651;BME280;11492;42.646;23.400;2022-10-31T09:08:46;95655.25;;;32.77;24.57
22651;BME280;11492;42.646;23.400;2022-10-31T09:11:11;95651.97;;;32.54;24.34
22651;BME280;11492;42.646;23.400;2022-10-31T09:13:36;95655.03;;;31.89;25.31
22651;BME280;11492;42.646;23.400;2022-10-31T09:16:02;95655.47;;;32.67;24.42
22651;BME280;11492;42.646;23.400;2022-10-31T09:18:27;95645.53;;;32.81;24.49
22651;BME280;11492;42.646;23.400;2022-10-31T09:20:53;95650.84;;;33.08;23.93
22651;BME280;11492;42.646;23.400;2022-10-31T09:23:21;95644.31;;;33.57;24.03
22651;BME280;11492;42.646;23.400;2022-10-31T09:25:48;95650.44;;;33.49;23.60
22651;BME280;11492;42.646;23.400;2022-10-31T09:28:15;95647.22;;;33.25;23.67
22651;BME280;11492;42.646;23.400;2022-10-31T09:30:42;95645.78;;;33.41;24.01
22651;BME280;11492;42.646;23.400;2022-10-31T09:33:11;95644.00;;;33.58;23.35
22651;BME280;11492;42.646;23.400;2022-10-31T09:35:38;95649.53;;;33.96;23.68
22651;BME280;11492;42.646;23.400;2022-10-31T09:38:06;95645.59;;;34.24;23.25
22651;BME280;11492;42.646;23.400;2022-10-31T09:40:47;95648.66;;;34.39;22.89
22651;BME280;11492;42.646;23.400;2022-10-31T09:43:41;95642.94;;;34.02;22.89
22651;BME280;11492;42.646;23.400;2022-10-31T09:48:58;95641.28;;;34.14;23.24
22651;BME280;11492;42.646;23.400;2022-10-31T09:51:45;95645.81;;;34.82;22.89
22651;BME280;11492;42.646;23.400;2022-10-31T09:54:16;95642.88;;;35.09;22.53
22651;BME280;11492;42.646;23.400;2022-10-31T09:56:43;95639.59;;;35.12;22.52
22651;BME280;11492;42.646;23.400;2022-10-31T09:59:30;95633.91;;;35.30;22.30
22651;BME280;11492;42.646;23.400;2022-10-31T10:02:00;95630.56;;;35.74;21.99
22651;BME280;11492;42.646;23.400;2022-10-31T10:04:30;95634.53;;;35.77;21.84
22651;BME280;11492;42.646;23.400;2022-10-31T10:06:58;95622.13;;;36.09;21.57
22651;BME280;11492;42.646;23.400;2022-10-31T10:09:26;95613.22;;;36.17;21.57
22651;BME280;11492;42.646;23.400;2022-10-31T10:12:00;95617.31;;;35.19;21.84
22651;BME280;11492;42.646;23.400;2022-10-31T10:14:56;95624.38;;;35.99;21.46
22651;BME280;11492;42.646;23.400;2022-10-31T10:17:37;95604.78;;;36.35;21.35
22651;BME280;11492;42.646;23.400;2022-10-31T10:20:58;95606.91;;;36.58;21.16
22651;BME280;11492;42.646;23.400;2022-10-31T10:26:45;95602.75;;;37.17;20.05
22651;BME280;11492;42.646;23.400;2022-10-31T10:32:09;95597.13;;;36.74;20.17
22651;BME280;11492;42.646;23.400;2022-10-31T10:34:49;95584.78;;;36.73;20.49
22651;BME280;11492;42.646;23.400;2022-10-31T10:37:32;95583.72;;;37.14;19.94
22651;BME280;11492;42.646;23.400;2022-10-31T10:40:23;95582.66;;;37.47;19.58
22651;BME280;11492;42.646;23.400;2022-10-31T10:45:43;95579.97;;;36.87;20.20
22651;BME280;11492;42.646;23.400;2022-10-31T10:48:43;95587.50;;;36.36;20.34
22651;BME280;11492;42.646;23.400;2022-10-31T10:51:21;95577.56;;;37.66;19.35
22651;BME280;11492;42.646;23.400;2022-10-31T10:59:24;95567.66;;;39.31;18.45
22651;BME280;11492;42.646;23.400;2022-10-31T11:01:51;95569.50;;;40.08;18.38
22651;BME280;11492;42.646;23.400;2022-10-31T11:04:35;95557.72;;;40.31;17.57
22651;BME280;11492;42.646;23.400;2022-10-31T11:07:09;95551.63;;;40.83;17.16
22651;BME280;11492;42.646;23.400;2022-10-31T11:09:37;95558.75;;;41.21;16.93
22651;BME280;11492;42.646;23.400;2022-10-31T11:14:35;95557.66;;;42.19;16.63
22651;BME280;11492;42.646;23.400;2022-10-31T11:17:14;95555.41;;;42.94;16.01
22651;BME280;11492;42.646;23.400;2022-10-31T11:19:42;95549.13;;;43.44;15.26
22651;BME280;11492;42.646;23.400;2022-10-31T11:22:15;95551.91;;;43.48;15.13
22651;BME280;11492;42.646;23.400;2022-10-31T11:24:41;95537.28;;;43.04;15.54
22651;BME280;11492;42.646;23.400;2022-10-31T11:27:16;95543.66;;;42.42;16.17
22651;BME280;11492;42.646;23.400;2022-10-31T11:29:45;95538.09;;;41.73;16.18
22651;BME280;11492;42.646;23.400;2022-10-31T11:32:21;95531.28;;;40.73;17.05
22651;BME280;11492;42.646;23.400;2022-10-31T11:34:51;95528.59;;;40.73;16.80
22651;BME280;11492;42.646;23.400;2022-10-31T11:37:26;95531.34;;;38.93;18.22
22651;BME280;11492;42.646;23.400;2022-10-31T11:39:55;95529.59;;;38.26;18.31
22651;BME280;11492;42.646;23.400;2022-10-31T11:42:23;95518.94;;;37.86;19.38
22651;BME280;11492;42.646;23.400;2022-10-31T11:44:50;95526.53;;;35.95;20.27
22651;BME280;11492;42.646;23.400;2022-10-31T11:47:17;95523.72;;;33.95;21.78
22651;BME280;11492;42.646;23.400;2022-10-31T11:49:48;95516.53;;;33.44;22.88
22651;BME280;11492;42.646;23.400;2022-10-31T11:54:48;95507.69;;;34.66;21.13
22651;BME280;11492;42.646;23.400;2022-10-31T11:57:31;95498.63;;;36.65;19.99
22651;BME280;11492;42.646;23.400;2022-10-31T11:59:59;95511.38;;;38.35;18.90
22651;BME280;11492;42.646;23.400;2022-10-31T12:02:25;95502.19;;;39.52;18.12
22651;BME280;11492;42.646;23.400;2022-10-31T12:04:58;95504.66;;;39.30;17.52
22651;BME280;11492;42.646;23.400;2022-10-31T12:07:25;95502.91;;;40.22;17.69
22651;BME280;11492;42.646;23.400;2022-10-31T12:09:51;95496.66;;;40.37;17.42
22651;BME280;11492;42.646;23.400;2022-10-31T12:12:37;95506.88;;;39.40;18.01
22651;BME280;11492;42.646;23.400;2022-10-31T12:20:56;95498.31;;;37.06;19.68
22651;BME280;11492;42.646;23.400;2022-10-31T12:23:26;95505.50;;;38.57;18.88
22651;BME280;11492;42.646;23.400;2022-10-31T12:38:01;95492.97;;;42.09;15.90
22651;BME280;11492;42.646;23.400;2022-10-31T12:57:22;95506.38;;;38.61;18.24
22651;BME280;11492;42.646;23.400;2022-10-31T13:00:11;95502.91;;;37.06;19.70
22651;BME280;11492;42.646;23.400;2022-10-31T13:05:29;95490.44;;;36.24;20.51
22651;BME280;11492;42.646;23.400;2022-10-31T13:08:17;95498.59;;;36.44;20.46
22651;BME280;11492;42.646;23.400;2022-10-31T13:13:36;95492.84;;;37.90;18.93
22651;BME280;11492;42.646;23.400;2022-10-31T13:16:19;95494.34;;;37.56;19.27
22651;BME280;11492;42.646;23.400;2022-10-31T13:21:36;95486.38;;;35.03;21.54
22651;BME280;11492;42.646;23.400;2022-10-31T13:24:07;95491.38;;;33.91;22.77
22651;BME280;11492;42.646;23.400;2022-10-31T13:26:47;95490.47;;;32.93;24.08
22651;BME280;11492;42.646;23.400;2022-10-31T13:29:22;95500.84;;;32.25;24.12
22651;BME280;11492;42.646;23.400;2022-10-31T13:31:49;95495.91;;;31.34;25.48
22651;BME280;11492;42.646;23.400;2022-10-31T13:39:51;95493.59;;;29.82;27.13
22651;BME280;11492;42.646;23.400;2022-10-31T13:42:32;95502.47;;;29.50;28.27
22651;BME280;11492;42.646;23.400;2022-10-31T13:45:20;95499.94;;;29.07;28.22
22651;BME280;11492;42.646;23.400;2022-10-31T13:50:40;95501.59;;;28.23;28.59
22651;BME280;11492;42.646;23.400;2022-10-31T13:53:18;95499.31;;;28.02;29.17
22651;BME280;11492;42.646;23.400;2022-10-31T13:55:49;95494.88;;;27.83;30.81
22651;BME280;11492;42.646;23.400;2022-10-31T13:58:28;95498.63;;;27.62;30.19
22651;BME280;11492;42.646;23.400;2022-10-31T14:03:36;95502.69;;;27.21;31.30
22651;BME280;11492;42.646;23.400;2022-10-31T14:06:03;95489.22;;;27.03;31.73
22651;BME280;11492;42.646;23.400;2022-10-31T14:08:33;95500.88;;;26.92;31.12
22651;BME280;11492;42.646;23.400;2022-10-31T14:10:59;95502.47;;;26.78;31.22
22651;BME280;11492;42.646;23.400;2022-10-31T14:13:32;95503.78;;;26.61;31.19
22651;BME280;11492;42.646;23.400;2022-10-31T14:16:15;95508.28;;;26.55;32.58
22651;BME280;11492;42.646;23.400;2022-10-31T14:18:48;95513.28;;;26.42;31.80
22651;BME280;11492;42.646;23.400;2022-10-31T14:23:40;95511.66;;;26.22;33.20
22651;BME280;11492;42.646;23.400;2022-10-31T14:28:51;95511.88;;;26.05;33.45
22651;BME280;11492;42.646;23.400;2022-10-31T14:31:33;95510.72;;;25.92;34.21
22651;BME280;11492;42.646;23.400;2022-10-31T14:44:56;95501.78;;;24.71;36.47
22651;BME280;11492;42.646;23.400;2022-10-31T14:47:49;95502.88;;;24.44;36.95
22651;BME280;11492;42.646;23.400;2022-10-31T14:50:36;95506.84;;;24.20;37.79
22651;BME280;11492;42.646;23.400;2022-10-31T14:53:05;95501.38;;;24.05;37.96
22651;BME280;11492;42.646;23.400;2022-10-31T14:55:31;95506.94;;;23.83;37.57
22651;BME280;11492;42.646;23.400;2022-10-31T14:58:04;95506.69;;;23.63;38.17